createdAt,value
2023-03-26T00:01:32.607Z,49.83
2023-03-26T00:03:58.997Z,50.24
2023-03-26T00:06:25.448Z,49.81
2023-03-26T00:08:51.963Z,49.64
2023-03-26T00:11:18.340Z,48.87
2023-03-26T00:13:44.721Z,48.47
2023-03-26T00:16:11.174Z,48.33
2023-03-26T00:18:37.588Z,49.27
2023-03-26T00:21:04.036Z,50.81
2023-03-26T00:23:39.556Z,51.34
2023-03-26T00:26:05.996Z,52.01
2023-03-26T00:28:32.380Z,51.72
2023-03-26T00:31:01.203Z,50.24
2023-03-26T00:33:27.652Z,50.12
2023-03-26T00:35:54.324Z,51.59
2023-03-26T00:38:20.958Z,51.38
2023-03-26T00:40:47.339Z,51.70
2023-03-26T00:43:13.714Z,53.11
2023-03-26T00:45:40.082Z,51.90
2023-03-26T00:48:08.061Z,51.95
2023-03-26T00:50:34.583Z,52.39
2023-03-26T00:53:00.973Z,52.38
2023-03-26T00:55:27.389Z,51.93
2023-03-26T00:57:53.717Z,52.81
2023-03-26T01:00:20.130Z,50.53
2023-03-26T01:02:46.542Z,49.43
2023-03-26T01:05:13.010Z,48.98
2023-03-26T01:07:39.431Z,49.93
2023-03-26T01:10:05.780Z,50.19
2023-03-26T01:12:32.124Z,50.63
2023-03-26T01:14:58.526Z,51.70
2023-03-26T01:17:24.989Z,51.22
2023-03-26T01:19:51.496Z,49.09
2023-03-26T01:22:17.869Z,48.53
2023-03-26T01:24:44.206Z,48.46
2023-03-26T01:27:10.520Z,47.85
2023-03-26T01:29:36.860Z,48.71
2023-03-26T01:32:03.224Z,50.08
2023-03-26T01:34:31.675Z,49.60
2023-03-26T01:36:58.089Z,50.60
2023-03-26T01:39:24.491Z,50.73
2023-03-26T01:41:50.855Z,51.04
2023-03-26T01:44:18.311Z,52.02
2023-03-26T01:46:44.831Z,51.90
2023-03-26T01:49:11.300Z,51.92
2023-03-26T01:51:37.713Z,52.46
2023-03-26T01:54:04.115Z,52.88
2023-03-26T01:56:30.637Z,53.00
2023-03-26T01:58:57.020Z,53.24
2023-03-26T02:01:23.487Z,53.17
2023-03-26T02:03:49.968Z,53.45
2023-03-26T02:06:16.374Z,53.09
2023-03-26T02:08:42.737Z,53.13
2023-03-26T02:11:09.822Z,52.21
2023-03-26T02:13:36.252Z,51.84
2023-03-26T02:16:02.705Z,51.81
2023-03-26T02:18:29.076Z,50.23
2023-03-26T02:20:58.177Z,51.09
2023-03-26T02:23:26.944Z,50.24
2023-03-26T02:25:53.552Z,50.37
2023-03-26T02:28:20.013Z,49.95
2023-03-26T02:30:46.392Z,49.00
2023-03-26T02:33:14.761Z,49.75
2023-03-26T02:35:41.336Z,51.06
2023-03-26T02:38:07.782Z,51.28
2023-03-26T02:40:34.198Z,51.67
2023-03-26T02:43:00.575Z,51.22
2023-03-26T02:45:27.140Z,50.74
2023-03-26T02:47:53.614Z,50.85
2023-03-26T02:50:20.075Z,50.95
2023-03-26T02:52:46.449Z,51.36
2023-03-26T02:55:12.836Z,52.43
2023-03-26T02:57:39.154Z,51.69
2023-03-26T03:00:05.533Z,52.39
2023-03-26T03:02:31.926Z,52.06
2023-03-26T03:04:58.752Z,51.07
2023-03-26T03:07:25.121Z,51.12
2023-03-26T03:09:51.485Z,50.21
2023-03-26T03:12:17.862Z,50.63
2023-03-26T03:14:44.228Z,51.15
2023-03-26T03:17:12.993Z,50.40
2023-03-26T03:19:39.422Z,50.18
2023-03-26T03:22:05.772Z,49.72
2023-03-26T03:24:32.132Z,50.33
2023-03-26T03:26:58.561Z,50.52
2023-03-26T03:29:24.926Z,51.18
2023-03-26T03:31:53.070Z,50.28
2023-03-26T03:34:19.428Z,50.01
2023-03-26T03:36:45.795Z,49.09
2023-03-26T03:39:14.653Z,48.95
2023-03-26T03:41:43.758Z,48.33
2023-03-26T03:44:10.156Z,48.82
2023-03-26T03:46:36.716Z,49.18
2023-03-26T03:49:03.185Z,48.71
2023-03-26T03:51:29.669Z,51.51
2023-03-26T03:53:56.061Z,51.45
2023-03-26T03:56:22.458Z,50.63
2023-03-26T03:58:48.851Z,49.63
2023-03-26T04:01:15.347Z,49.56
2023-03-26T04:03:41.943Z,49.86
2023-03-26T04:06:08.636Z,48.68
2023-03-26T04:08:35.037Z,48.91
2023-03-26T04:11:01.478Z,47.40
2023-03-26T04:13:27.887Z,48.12
2023-03-26T04:15:54.493Z,48.60
2023-03-26T04:18:21.173Z,47.56
2023-03-26T04:20:47.690Z,47.95
2023-03-26T04:23:14.073Z,47.69
2023-03-26T04:25:40.469Z,47.94
2023-03-26T04:28:06.836Z,48.23
2023-03-26T04:30:33.209Z,47.81
2023-03-26T04:32:59.672Z,48.03
2023-03-26T04:35:26.112Z,47.96
2023-03-26T04:37:52.518Z,47.80
2023-03-26T04:40:18.899Z,47.32
2023-03-26T04:42:45.286Z,47.74
2023-03-26T04:45:11.669Z,47.15
2023-03-26T04:47:38.079Z,48.20
2023-03-26T04:50:04.483Z,48.57
2023-03-26T04:52:30.883Z,49.99
2023-03-26T04:54:57.270Z,48.37
2023-03-26T04:57:23.645Z,49.51
2023-03-26T04:59:50.085Z,50.41
2023-03-26T05:02:16.482Z,52.08
2023-03-26T05:04:42.896Z,50.20
2023-03-26T05:07:09.336Z,52.19
2023-03-26T05:09:35.702Z,52.37
2023-03-26T05:12:02.080Z,53.24
2023-03-26T05:14:28.434Z,54.05
2023-03-26T05:16:57.983Z,53.36
2023-03-26T05:19:24.384Z,53.53
2023-03-26T05:21:50.994Z,53.95
2023-03-26T05:24:18.036Z,55.93
2023-03-26T05:26:44.380Z,56.36
2023-03-26T05:29:10.788Z,57.43
2023-03-26T05:31:37.230Z,56.76
2023-03-26T05:34:03.589Z,56.77
2023-03-26T05:36:29.982Z,57.80
2023-03-26T05:38:56.442Z,58.24
2023-03-26T05:41:23.224Z,60.84
2023-03-26T05:43:49.583Z,61.40
2023-03-26T05:46:15.985Z,61.25
2023-03-26T05:48:42.399Z,60.62
2023-03-26T05:51:08.847Z,60.59
2023-03-26T05:53:35.220Z,60.71
2023-03-26T05:56:01.558Z,62.32
2023-03-26T05:58:27.937Z,61.15
2023-03-26T06:00:54.616Z,62.24
2023-03-26T06:03:21.206Z,62.07
2023-03-26T06:05:47.629Z,62.63
2023-03-26T06:08:13.981Z,62.91
2023-03-26T06:10:40.390Z,62.58
2023-03-26T06:15:47.085Z,60.81
2023-03-26T06:18:13.586Z,59.41
2023-03-26T06:20:40.009Z,60.59
2023-03-26T06:23:08.892Z,61.57
2023-03-26T06:25:35.286Z,60.32
2023-03-26T06:28:03.047Z,56.93
2023-03-26T06:30:29.434Z,58.08
2023-03-26T06:32:55.934Z,60.71
2023-03-26T06:35:22.311Z,62.11
2023-03-26T06:37:48.793Z,62.00
2023-03-26T06:40:15.957Z,62.01
2023-03-26T06:43:08.227Z,61.11
2023-03-26T06:45:28.948Z,62.49
2023-03-26T06:47:56.819Z,62.64
2023-03-26T06:50:23.348Z,61.75
2023-03-26T06:52:49.797Z,63.22
2023-03-26T06:55:16.294Z,62.96
2023-03-26T06:57:42.668Z,61.85
2023-03-26T07:00:09.065Z,62.75
2023-03-26T07:02:35.441Z,62.18
2023-03-26T07:05:01.820Z,61.47
2023-03-26T07:07:28.170Z,61.83
2023-03-26T07:09:54.582Z,62.57
2023-03-26T07:12:21.019Z,63.49
2023-03-26T07:14:47.381Z,63.38
2023-03-26T07:17:13.801Z,66.11
2023-03-26T07:19:40.234Z,66.14
2023-03-26T07:22:06.670Z,66.04
2023-03-26T07:24:33.053Z,64.03
2023-03-26T07:26:59.433Z,64.55
2023-03-26T07:29:25.852Z,65.28
2023-03-26T07:32:00.046Z,65.25
2023-03-26T07:34:26.532Z,64.56
2023-03-26T07:36:52.853Z,64.78
2023-03-26T07:39:19.262Z,63.35
2023-03-26T07:41:45.633Z,63.50
2023-03-26T07:44:12.053Z,63.50
2023-03-26T07:46:38.605Z,63.89
2023-03-26T07:49:04.999Z,64.35
2023-03-26T07:51:31.394Z,64.57
2023-03-26T07:53:57.810Z,65.11
2023-03-26T07:56:24.200Z,65.19
2023-03-26T07:58:50.641Z,64.45
2023-03-26T08:01:17.066Z,66.07
2023-03-26T08:03:43.521Z,67.06
2023-03-26T08:06:10.047Z,65.05
2023-03-26T08:08:36.394Z,62.94
2023-03-26T08:11:02.800Z,64.10
2023-03-26T08:13:29.145Z,63.91
2023-03-26T08:15:55.567Z,63.42
2023-03-26T08:18:21.962Z,63.42
2023-03-26T08:20:48.381Z,61.29
2023-03-26T08:23:14.993Z,63.18
2023-03-26T08:25:41.448Z,63.71
2023-03-26T08:28:07.873Z,63.83
2023-03-26T08:30:34.238Z,64.12
2023-03-26T08:33:00.786Z,60.73
2023-03-26T08:35:27.226Z,58.84
2023-03-26T08:37:53.603Z,58.58
2023-03-26T08:40:19.973Z,63.30
2023-03-26T08:42:46.359Z,62.89
2023-03-26T08:45:12.743Z,63.17
2023-03-26T08:47:39.191Z,64.33
2023-03-26T08:50:05.609Z,62.91
2023-03-26T08:52:32.053Z,63.47
2023-03-26T08:54:58.418Z,64.12
2023-03-26T08:57:24.795Z,64.36
2023-03-26T08:59:51.176Z,65.42
2023-03-26T09:02:17.613Z,65.65
2023-03-26T09:04:43.984Z,65.68
2023-03-26T09:07:10.345Z,65.81
2023-03-26T09:09:36.666Z,64.89
2023-03-26T09:12:03.058Z,65.70
2023-03-26T09:14:29.472Z,64.64
2023-03-26T09:16:55.938Z,65.42
2023-03-26T09:19:22.350Z,64.57
2023-03-26T09:21:48.710Z,64.04
2023-03-26T09:24:15.163Z,64.20
2023-03-26T09:26:41.617Z,65.47
2023-03-26T09:29:08.010Z,64.96
2023-03-26T09:31:34.440Z,65.76
2023-03-26T09:34:00.896Z,65.27
2023-03-26T09:36:27.284Z,64.44
2023-03-26T09:38:53.704Z,65.37
2023-03-26T09:41:20.078Z,65.87
2023-03-26T09:43:46.529Z,65.68
2023-03-26T09:46:12.985Z,66.60
2023-03-26T09:48:39.437Z,66.81
2023-03-26T09:51:05.872Z,65.68
2023-03-26T09:53:32.270Z,66.06
2023-03-26T09:55:58.637Z,65.87
2023-03-26T09:58:24.989Z,65.55
2023-03-26T10:00:51.617Z,64.90
2023-03-26T10:03:18.082Z,62.97
2023-03-26T10:05:44.483Z,62.72
2023-03-26T10:08:10.975Z,62.87
2023-03-26T10:10:40.037Z,61.10
2023-03-26T10:13:14.551Z,60.45
2023-03-26T10:15:41.606Z,60.65
2023-03-26T10:18:26.980Z,62.21
2023-03-26T10:20:54.783Z,62.49
2023-03-26T10:23:21.256Z,60.27
2023-03-26T10:25:47.601Z,58.38
2023-03-26T10:28:14.047Z,59.00
2023-03-26T10:30:40.552Z,58.52
2023-03-26T10:33:06.969Z,58.85
2023-03-26T10:35:33.376Z,56.78
2023-03-26T10:37:59.761Z,57.19
2023-03-26T10:40:27.888Z,57.91
2023-03-26T10:42:54.364Z,60.87
2023-03-26T10:45:20.762Z,60.94
2023-03-26T10:47:47.178Z,66.12
2023-03-26T10:50:14.563Z,65.93
2023-03-26T10:52:49.114Z,66.61
2023-03-26T10:55:15.480Z,65.87
2023-03-26T10:57:41.827Z,66.30
2023-03-26T11:00:08.278Z,65.70
2023-03-26T11:02:34.747Z,66.11
2023-03-26T11:05:01.191Z,59.97
2023-03-26T11:07:27.666Z,60.13
2023-03-26T11:09:54.057Z,58.46
2023-03-26T11:12:26.626Z,57.34
2023-03-26T11:14:54.931Z,57.32
2023-03-26T11:17:40.153Z,56.58
2023-03-26T11:20:07.807Z,57.52
2023-03-26T11:22:34.149Z,56.51
2023-03-26T11:25:00.523Z,56.07
2023-03-26T11:27:26.919Z,58.34
2023-03-26T11:29:53.279Z,60.49
2023-03-26T11:32:19.680Z,58.96
2023-03-26T11:34:46.278Z,59.64
2023-03-26T11:37:12.682Z,60.90
2023-03-26T11:39:39.084Z,61.27
2023-03-26T11:42:05.515Z,61.25
2023-03-26T11:44:31.904Z,60.68
2023-03-26T11:46:58.341Z,62.85
2023-03-26T11:49:24.758Z,63.58
2023-03-26T11:51:51.196Z,63.44
2023-03-26T11:54:17.555Z,63.87
2023-03-26T11:57:05.527Z,63.02
2023-03-26T11:59:30.259Z,62.84
2023-03-26T12:01:56.772Z,62.98
2023-03-26T12:04:23.394Z,62.29
2023-03-26T12:06:49.821Z,60.59
2023-03-26T12:09:16.212Z,61.37
2023-03-26T12:11:42.565Z,61.50
2023-03-26T12:14:11.141Z,59.79
2023-03-26T12:16:37.545Z,59.33
2023-03-26T12:19:03.976Z,58.32
2023-03-26T12:21:31.392Z,57.40
2023-03-26T12:23:57.769Z,59.86
2023-03-26T12:26:24.214Z,60.28
2023-03-26T12:28:50.633Z,59.62
2023-03-26T12:31:17.095Z,59.14
2023-03-26T12:33:43.481Z,59.44
2023-03-26T12:36:09.858Z,58.78
2023-03-26T12:38:39.062Z,56.84
2023-03-26T12:41:05.905Z,57.57
2023-03-26T12:44:49.800Z,57.50
2023-03-26T12:47:59.336Z,56.62
2023-03-26T12:49:05.346Z,56.18
2023-03-26T12:51:31.806Z,54.30
2023-03-26T12:53:58.386Z,54.64
2023-03-26T12:56:24.822Z,53.79
2023-03-26T12:58:51.417Z,53.96
2023-03-26T13:01:17.868Z,53.79
2023-03-26T13:03:44.247Z,53.80
2023-03-26T13:06:10.716Z,53.24
2023-03-26T13:08:37.148Z,55.51
2023-03-26T13:11:03.580Z,57.44
2023-03-26T13:13:29.944Z,61.77
2023-03-26T13:15:56.386Z,65.59
2023-03-26T13:18:22.778Z,71.91
2023-03-26T13:20:49.174Z,76.69
2023-03-26T13:23:15.628Z,81.13
2023-03-26T13:25:42.121Z,83.28
2023-03-26T13:28:11.241Z,85.32
2023-03-26T13:33:28.227Z,86.89
2023-03-26T13:36:00.661Z,87.32
2023-03-26T13:38:33.212Z,86.97
2023-03-26T13:40:59.804Z,85.92
2023-03-26T13:43:26.260Z,81.91
2023-03-26T13:45:52.738Z,83.00
2023-03-26T13:48:19.216Z,83.38
2023-03-26T13:50:45.590Z,81.63
2023-03-26T13:53:11.984Z,83.98
2023-03-26T13:55:38.442Z,83.18
2023-03-26T13:58:04.901Z,82.43
2023-03-26T14:00:31.344Z,83.32
2023-03-26T14:02:57.844Z,83.08
2023-03-26T14:05:25.363Z,82.90
2023-03-26T14:07:51.694Z,82.62
2023-03-26T14:10:18.110Z,83.31
2023-03-26T14:12:44.549Z,82.67
2023-03-26T14:15:10.961Z,82.12
2023-03-26T14:17:37.359Z,80.59
2023-03-26T14:20:03.840Z,80.16
2023-03-26T14:22:30.302Z,77.67
2023-03-26T14:24:56.714Z,77.98
2023-03-26T14:27:23.027Z,79.17
2023-03-26T14:29:56.697Z,80.53
2023-03-26T14:32:24.238Z,81.89
2023-03-26T14:34:51.108Z,81.34
2023-03-26T14:37:27.386Z,79.76
2023-03-26T14:39:54.491Z,78.44
2023-03-26T14:42:20.880Z,79.83
2023-03-26T14:44:47.809Z,81.38
2023-03-26T14:47:15.882Z,82.28
2023-03-26T14:49:42.367Z,81.83
2023-03-26T14:52:08.767Z,82.85
2023-03-26T14:54:35.170Z,80.58
2023-03-26T14:57:01.601Z,81.93
2023-03-26T14:59:28.080Z,81.94
2023-03-26T15:01:54.483Z,81.65
2023-03-26T15:04:20.990Z,82.06
2023-03-26T15:07:10.297Z,79.18
2023-03-26T15:09:34.609Z,79.05
2023-03-26T15:12:12.298Z,80.63
2023-03-26T15:14:39.743Z,81.00
2023-03-26T15:17:06.119Z,77.50
2023-03-26T15:19:32.433Z,76.59
2023-03-26T15:21:58.865Z,78.99
2023-03-26T15:24:25.297Z,79.15
2023-03-26T15:26:51.698Z,79.22
2023-03-26T15:29:18.127Z,80.19
2023-03-26T15:31:44.516Z,77.96
2023-03-26T15:34:10.975Z,76.57
2023-03-26T15:36:37.368Z,78.76
2023-03-26T15:39:03.804Z,79.80
2023-03-26T15:41:30.235Z,78.28
2023-03-26T15:44:23.993Z,78.96
2023-03-26T15:46:43.220Z,77.89
2023-03-26T15:49:09.602Z,78.51
2023-03-26T15:51:46.872Z,80.00
2023-03-26T15:54:14.151Z,77.10
2023-03-26T15:56:40.625Z,75.97
2023-03-26T15:59:07.002Z,75.95
2023-03-26T16:01:33.388Z,74.39
2023-03-26T16:03:59.847Z,74.46
2023-03-26T16:06:26.299Z,77.22
2023-03-26T16:08:52.699Z,77.11
2023-03-26T16:11:19.115Z,79.72
2023-03-26T16:16:28.921Z,77.69
2023-03-26T16:18:55.356Z,74.00
2023-03-26T16:21:31.503Z,71.04
2023-03-26T16:23:59.000Z,76.70
2023-03-26T16:26:25.436Z,77.04
2023-03-26T16:28:51.953Z,77.49
2023-03-26T16:31:37.064Z,76.62
2023-03-26T16:34:04.771Z,69.84
2023-03-26T16:36:31.170Z,70.28
2023-03-26T16:38:57.557Z,62.42
2023-03-26T16:41:23.964Z,52.94
2023-03-26T16:43:50.391Z,48.44
2023-03-26T16:46:16.773Z,49.08
2023-03-26T16:48:43.184Z,46.06
2023-03-26T16:51:09.540Z,53.92
2023-03-26T16:53:36.039Z,54.08
2023-03-26T16:56:02.463Z,53.39
2023-03-26T16:58:28.889Z,53.50
2023-03-26T17:00:55.518Z,55.86
2023-03-26T17:03:22.239Z,58.26
2023-03-26T17:05:48.755Z,55.84
2023-03-26T17:08:15.245Z,59.87
2023-03-26T17:10:41.640Z,62.07
2023-03-26T17:13:08.031Z,61.65
2023-03-26T17:15:34.421Z,58.69
2023-03-26T17:18:01.014Z,66.67
2023-03-26T17:20:27.496Z,68.02
2023-03-26T17:22:53.847Z,69.92
2023-03-26T17:25:20.288Z,66.72
2023-03-26T17:27:49.160Z,65.53
2023-03-26T17:30:15.732Z,67.20
2023-03-26T17:32:42.182Z,69.29
2023-03-26T17:35:08.790Z,67.20
2023-03-26T17:37:37.342Z,67.89
2023-03-26T17:40:03.773Z,65.97
2023-03-26T17:42:30.193Z,68.05
2023-03-26T17:44:56.594Z,66.08
2023-03-26T17:47:22.955Z,66.14
2023-03-26T17:49:49.366Z,66.31
2023-03-26T17:52:15.767Z,66.50
2023-03-26T17:54:42.209Z,65.67
2023-03-26T17:57:11.177Z,64.15
2023-03-26T17:59:39.298Z,61.73
2023-03-26T18:02:08.190Z,62.90
2023-03-26T18:04:34.633Z,63.40
2023-03-26T18:07:01.225Z,58.38
2023-03-26T18:09:29.607Z,59.94
2023-03-26T18:11:56.119Z,64.58
2023-03-26T18:14:25.274Z,61.97
2023-03-26T18:16:51.839Z,59.87
2023-03-26T18:19:18.271Z,61.30
2023-03-26T18:21:44.767Z,58.96
2023-03-26T18:24:11.259Z,60.35
2023-03-26T18:26:37.691Z,60.22
2023-03-26T18:29:04.868Z,60.64
2023-03-26T18:31:31.257Z,59.74
2023-03-26T18:33:57.726Z,61.70
2023-03-26T18:36:24.093Z,62.44
2023-03-26T18:38:50.444Z,60.47
2023-03-26T18:41:20.323Z,64.76
2023-03-26T18:43:56.763Z,60.27
2023-03-26T18:46:23.414Z,62.85
2023-03-26T18:51:43.219Z,56.63
2023-03-26T18:54:16.986Z,57.48
2023-03-26T18:56:43.589Z,60.24
2023-03-26T18:59:10.059Z,60.92
2023-03-26T19:01:36.556Z,62.66
2023-03-26T19:04:03.088Z,63.90
2023-03-26T19:06:29.505Z,63.95
2023-03-26T19:08:55.971Z,59.54
2023-03-26T19:11:22.407Z,58.99
2023-03-26T19:13:48.823Z,59.48
2023-03-26T19:16:15.276Z,60.03
2023-03-26T19:18:43.949Z,59.76
2023-03-26T19:21:10.698Z,61.51
2023-03-26T19:23:37.136Z,60.63
2023-03-26T19:26:03.508Z,61.71
2023-03-26T19:28:29.895Z,61.15
2023-03-26T19:30:56.460Z,60.74
2023-03-26T19:33:23.099Z,60.66
2023-03-26T19:35:49.725Z,61.36
2023-03-26T19:38:16.154Z,61.24
2023-03-26T19:40:42.596Z,62.27
2023-03-26T19:43:09.004Z,63.78
2023-03-26T19:45:35.382Z,65.05
2023-03-26T19:50:48.381Z,62.60
2023-03-26T19:51:18.797Z,65.68
2023-03-26T19:53:17.078Z,65.42
2023-03-26T19:55:43.866Z,64.18
2023-03-26T19:58:10.346Z,62.80
2023-03-26T20:00:36.720Z,63.12
2023-03-26T20:03:03.179Z,61.56
2023-03-26T20:05:29.624Z,62.36
2023-03-26T20:07:56.016Z,63.17
2023-03-26T20:10:22.456Z,63.58
2023-03-26T20:12:48.893Z,63.23
2023-03-26T20:15:19.361Z,63.50
2023-03-26T20:17:46.224Z,63.53
2023-03-26T20:20:12.647Z,64.13
2023-03-26T20:22:39.086Z,63.87
2023-03-26T20:25:05.492Z,63.06
2023-03-26T20:27:32.006Z,63.05
2023-03-26T20:29:58.378Z,61.90
2023-03-26T20:32:27.003Z,63.27
2023-03-26T20:34:53.563Z,63.82
2023-03-26T20:37:19.972Z,64.38
2023-03-26T20:39:46.367Z,62.39
2023-03-26T20:42:14.649Z,62.87
2023-03-26T20:44:42.244Z,64.89
2023-03-26T20:47:08.690Z,63.84
2023-03-26T20:49:35.096Z,62.99
2023-03-26T20:52:02.741Z,64.43
2023-03-26T20:54:29.130Z,64.51
2023-03-26T20:56:55.490Z,64.53
2023-03-26T20:59:22.264Z,63.99
2023-03-26T21:01:49.162Z,64.10
2023-03-26T21:04:15.622Z,64.89
2023-03-26T21:06:41.978Z,62.79
2023-03-26T21:09:08.389Z,62.11
2023-03-26T21:11:34.835Z,63.71
2023-03-26T21:14:04.268Z,62.65
2023-03-26T21:16:30.661Z,62.61
2023-03-26T21:18:57.053Z,64.59
2023-03-26T21:21:23.374Z,65.07
2023-03-26T21:23:49.779Z,63.09
2023-03-26T21:26:16.128Z,62.48
2023-03-26T21:28:43.529Z,63.56
2023-03-26T21:31:09.926Z,64.18
2023-03-26T21:33:36.309Z,63.57
2023-03-26T21:36:02.835Z,64.31
2023-03-26T21:38:29.265Z,63.24
2023-03-26T21:40:58.884Z,64.19
2023-03-26T21:43:25.464Z,63.26
2023-03-26T21:45:51.891Z,63.71
2023-03-26T21:48:18.360Z,64.20
2023-03-26T21:50:44.787Z,63.27
2023-03-26T21:53:11.644Z,62.79
2023-03-26T21:55:38.059Z,63.27
2023-03-26T21:58:04.442Z,63.38
2023-03-26T22:00:42.778Z,62.79
2023-03-26T22:03:10.326Z,62.47
2023-03-26T22:05:36.783Z,63.41
2023-03-26T22:08:03.206Z,62.92
2023-03-26T22:10:29.583Z,63.19
2023-03-26T22:12:55.977Z,64.20
2023-03-26T22:15:22.366Z,64.14
2023-03-26T22:17:48.798Z,64.41
2023-03-26T22:20:15.238Z,65.19
2023-03-26T22:22:41.609Z,64.51
2023-03-26T22:25:08.225Z,63.68
2023-03-26T22:27:34.626Z,64.01
2023-03-26T22:30:10.558Z,64.09
2023-03-26T22:32:37.017Z,65.18
2023-03-26T22:35:03.418Z,64.92
2023-03-26T22:37:29.794Z,63.74
2023-03-26T22:39:56.281Z,59.96
2023-03-26T22:42:27.550Z,59.98
2023-03-26T22:44:53.908Z,61.21
2023-03-26T22:47:20.542Z,63.35
2023-03-26T22:50:07.133Z,60.79
2023-03-26T22:52:33.519Z,61.76
2023-03-26T22:54:59.917Z,61.06
2023-03-26T22:57:26.334Z,62.29
2023-03-26T22:59:52.751Z,63.48
2023-03-26T23:02:19.157Z,67.47
2023-03-26T23:04:45.623Z,67.97
2023-03-26T23:07:12.017Z,66.68
2023-03-26T23:09:38.378Z,71.85
2023-03-26T23:12:04.747Z,73.02
2023-03-26T23:14:31.213Z,72.49
2023-03-26T23:16:57.617Z,77.35
2023-03-26T23:19:23.983Z,75.75
2023-03-26T23:22:02.715Z,73.51
2023-03-26T23:24:29.337Z,71.74
2023-03-26T23:26:55.789Z,69.56
2023-03-26T23:29:22.199Z,68.61
2023-03-26T23:31:48.584Z,68.35
2023-03-26T23:34:14.971Z,68.56
2023-03-26T23:36:41.330Z,69.54
2023-03-26T23:39:07.633Z,70.60
2023-03-26T23:41:34.005Z,69.45
2023-03-26T23:44:03.481Z,69.56
2023-03-26T23:46:29.928Z,69.33
2023-03-26T23:48:56.352Z,68.78
2023-03-26T23:51:22.787Z,69.33
2023-03-26T23:53:49.413Z,69.39
2023-03-26T23:56:16.076Z,68.35
2023-03-26T23:58:42.494Z,67.77
